EW7655 Weather Reports


time (UTC)temp
F
wind
direction
speed
knots
gust
knots
rain 1hr
in
rain 24hr
in
rain mn
in
humidity
%
barometer
mb
20260506044526 60 268 6.1 0.0 0.00 0.00 0.00 35 1020.6
20260506043025 63 262 6.1 0.0 0.00 0.00 0.00 30 1020.0
20260506041525 65 246 7.8 0.0 0.00 0.00 0.00 26 1020.6
20260506040026 64 258 5.2 0.0 0.00 0.00 0.00 27 1020.2
20260506034529 65 205 7.0 0.0 0.00 0.00 0.00 28 1019.7
20260506033023 65 245 8.7 0.0 0.00 0.00 0.00 28 1019.7
20260506031523 63 242 6.1 0.0 0.00 0.00 0.00 35 1019.2
20260506030035 63 260 5.2 0.0 0.00 0.00 0.00 38 1019.1
20260506024545 63 269 4.3 0.0 0.00 0.00 0.00 38 1018.6
20260506023021 64 271 4.3 0.0 0.00 0.00 0.00 37 1018.5
20260506021524 65 285 6.1 0.0 0.00 0.00 0.00 36 1018.8
20260506020022 66 289 7.8 0.0 0.00 0.00 0.00 35 1018.3
20260506014520 66 284 10.4 0.0 0.00 0.00 0.00 35 1018.2
20260506013033 68 286 12.2 0.0 0.00 0.00 0.00 34 1018.2
20260506011520 68 284 13.0 0.0 0.00 0.00 0.00 32 1017.8
20260506010024 68 302 9.6 0.0 0.00 0.00 0.00 34 1017.8
20260506004518 68 298 11.3 0.0 0.00 0.00 0.00 34 1017.8
20260506003019 68 303 9.6 0.0 0.00 0.00 0.00 33 1017.4
20260506001520 70 248 11.3 0.0 0.00 0.00 0.00 29 1017.4
20260506000017 70 207 16.5 0.0 0.00 0.00 0.00 29 1017.4
20260505234517 71 205 14.8 0.0 0.00 0.00 0.00 29 1017.6
20260505233020 70 213 17.4 0.0 0.00 0.00 0.00 30 1017.8
20260505231516 70 207 21.7 0.0 0.00 0.00 0.00 29 1017.1
20260505230033 71 226 20.9 0.0 0.00 0.00 0.00 29 1017.1
20260505224515 72 227 24.3 0.0 0.00 0.00 0.00 27 1016.8
20260505223015 73 206 22.6 0.0 0.00 0.00 0.00 25 1017.0
20260505221514 73 227 21.7 0.0 0.00 0.00 0.00 22 1016.9
20260505220014 73 258 23.5 0.0 0.00 0.00 0.00 23 1016.7
20260505214513 74 246 17.4 0.0 0.00 0.00 0.00 22 1017.4
20260505213011 72 210 22.6 0.0 0.00 0.00 0.00 23 1017.9
20260505211509 72 223 21.7 0.0 0.00 0.00 0.00 23 1018.3
20260505210008 73 232 18.2 0.0 0.00 0.00 0.00 25 1018.5
20260505204506 71 241 20.0 0.0 0.00 0.00 0.00 27 1018.7
20260505203005 72 261 17.4 0.0 0.00 0.00 0.00 26 1018.9
20260505201506 70 239 17.4 0.0 0.00 0.00 0.00 29 1019.0
20260505200003 70 219 19.1 0.0 0.00 0.00 0.00 28 1019.2
20260505194613 69 226 20.0 0.0 0.00 0.00 0.00 29 1019.7
20260505193058 69 240 20.9 0.0 0.00 0.00 0.00 30 1019.7
20260505191600 69 253 20.0 0.0 0.00 0.00 0.00 32 1019.7
20260505190056 69 225 20.0 0.0 0.00 0.00 0.00 31 1019.6
20260505184554 68 223 20.9 0.0 0.00 0.00 0.00 34 1019.5
20260505183100 68 228 20.9 0.0 0.00 0.00 0.00 37 1019.3
20260505181551 68 246 20.0 0.0 0.00 0.00 0.00 38 1019.9
20260505180050 67 208 17.4 0.0 0.00 0.00 0.00 39 1019.7
20260505174550 67 263 13.9 0.0 0.00 0.00 0.00 39 1020.0
20260505173049 66 215 11.3 0.0 0.00 0.00 0.00 41 1020.1
20260505171544 65 246 9.6 0.0 0.00 0.00 0.00 42 1020.1
20260505170043 65 223 8.7 0.0 0.00 0.00 0.00 42 1020.3
20260505164551 64 197 7.8 0.0 0.00 0.00 0.00 42 1020.7
20260505163048 64 271 2.6 0.0 0.00 0.00 0.00 42 1020.7
20260505161543 63 270 3.5 0.0 0.00 0.00 0.00 43 1020.7
20260505153049 62 260 6.1 0.0 0.00 0.00 0.00 43 1020.6
20260505151543 62 275 7.8 0.0 0.00 0.00 0.00 43 1020.1
20260505124520 62 257 6.1 0.0 0.00 0.00 0.00 41 1019.8
20260505123014 61 245 3.5 0.0 0.00 0.00 0.00 45 1019.5
20260505121513 60 263 4.3 0.0 0.00 0.00 0.00 46 1019.0
20260505120012 60 189 3.5 0.0 0.00 0.00 0.00 51 1018.9
20260505114517 60 159 0.9 0.0 0.00 0.00 0.00 51 1018.8
20260505113007 61 159 2.6 0.0 0.00 0.00 0.00 47 1019.0
20260505111508 61 148 2.6 0.0 0.00 0.00 0.00 46 1018.8
20260505101503 62 296 5.2 0.0 0.00 0.00 0.00 44 1018.6
20260505100003 62 296 6.1 0.0 0.00 0.00 0.00 44 1018.6
20260505094501 62 295 6.1 0.0 0.00 0.00 0.00 44 1018.5
20260505093107 61 300 6.1 0.0 0.00 0.00 0.00 45 1018.6
20260505091603 61 289 5.2 0.0 0.00 0.00 0.00 45 1018.5
20260505090100 62 292 7.0 0.0 0.00 0.00 0.00 44 1018.7
20260505084554 62 276 8.7 0.0 0.00 0.00 0.00 43 1018.9
20260505083054 63 289 8.7 0.0 0.00 0.00 0.00 43 1018.7
20260505081559 63 298 7.8 0.0 0.00 0.00 0.00 42 1019.4
20260505080049 63 289 7.8 0.0 0.00 0.00 0.00 42 1019.1
20260505074604 64 273 12.2 0.0 0.00 0.00 0.00 41 1019.3
20260505073051 64 270 11.3 0.0 0.00 0.00 0.00 40 1018.8
20260505071542 64 262 11.3 0.0 0.00 0.00 0.00 40 1019.3
20260505070040 64 277 7.8 0.0 0.00 0.00 0.00 40 1019.1
20260505064539 64 287 7.0 0.0 0.00 0.00 0.00 40 1019.2
20260505063041 65 303 8.7 0.0 0.00 0.00 0.00 39 1019.6
20260505061549 65 281 7.8 0.0 0.00 0.00 0.00 38 1020.4
20260505060032 65 277 7.8 0.0 0.00 0.00 0.00 37 1020.1